Time;durP1;ratioP1;P1;durP2;ratioP2;P2;SDS_P1;SDS_P2;PMS_P1;PMS_P2;Temp;Humidity;BMP_temperature;BMP_pressure;BME280_temperature;BME280_humidity;BME280_pressure;Samples;Min_cycle;Max_cycle;Signal;HPM_P1;HPM_P2
2020/12/17 00:00:33;;;;;;;12.53;10.07;;;;;;;;;;5095326;28;20229;-85
2020/12/17 00:02:59;;;;;;;11.47;9.93;;;;;;;;;;5095451;28;20252;-83
2020/12/17 00:05:26;;;;;;;10.90;9.13;;;;;;;;;;5095281;28;20230;-85
2020/12/17 00:07:52;;;;;;;10.17;9.17;;;;;;;;;;5095092;28;20226;-84
2020/12/17 00:10:19;;;;;;;10.53;9.30;;;;;;;;;;5094977;28;20539;-82
2020/12/17 00:12:46;;;;;;;11.13;9.73;;;;;;;;;;5095386;28;20229;-86
2020/12/17 00:15:13;;;;;;;9.93;8.93;;;;;;;;;;5094525;28;20271;-83
2020/12/17 00:17:40;;;;;;;11.87;9.20;;;;;;;;;;5094992;28;20229;-82
2020/12/17 00:20:06;;;;;;;14.47;9.80;;;;;;;;;;5095023;28;20218;-82
2020/12/17 00:22:33;;;;;;;11.73;9.50;;;;;;;;;;5093785;28;20202;-81
2020/12/17 00:25:00;;;;;;;13.17;9.40;;;;;;;;;;5094709;28;20264;-82
2020/12/17 00:27:26;;;;;;;10.60;9.50;;;;;;;;;;5095334;28;20472;-82
2020/12/17 00:29:52;;;;;;;10.00;8.80;;;;;;;;;;5094518;28;20267;-81
2020/12/17 00:32:18;;;;;;;12.30;10.10;;;;;;;;;;5095084;28;20256;-82
2020/12/17 00:34:44;;;;;;;11.80;9.70;;;;;;;;;;5094899;28;20252;-81
2020/12/17 00:37:10;;;;;;;11.37;9.17;;;;;;;;;;5095152;28;20565;-82
2020/12/17 00:39:36;;;;;;;11.50;9.73;;;;;;;;;;5094865;28;20229;-82
2020/12/17 00:42:04;;;;;;;11.67;9.87;;;;;;;;;;5095069;28;20241;-81
2020/12/17 00:44:30;;;;;;;12.43;10.67;;;;;;;;;;5094875;28;20202;-81
2020/12/17 00:46:56;;;;;;;13.07;10.83;;;;;;;;;;5095049;28;20210;-82
2020/12/17 00:49:22;;;;;;;14.07;9.97;;;;;;;;;;5094922;28;20471;-82
2020/12/17 00:51:48;;;;;;;11.83;9.97;;;;;;;;;;5095224;28;20225;-82
2020/12/17 00:54:14;;;;;;;13.17;10.20;;;;;;;;;;5094849;28;20230;-81
2020/12/17 00:56:45;;;;;;;12.73;10.57;;;;;;;;;;5094958;28;20237;-81
2020/12/17 00:59:11;;;;;;;11.90;10.30;;;;;;;;;;5095059;28;20232;-82
2020/12/17 01:01:38;;;;;;;17.67;10.53;;;;;;;;;;5095082;28;20230;-81
2020/12/17 01:04:04;;;;;;;14.17;10.17;;;;;;;;;;5094718;28;20236;-81
2020/12/17 01:06:30;;;;;;;13.23;10.53;;;;;;;;;;5094962;28;20499;-81
2020/12/17 01:08:56;;;;;;;16.80;11.40;;;;;;;;;;5094739;28;20673;-81
2020/12/17 01:11:25;;;;;;;15.10;11.27;;;;;;;;;;5094694;28;20214;-82
2020/12/17 01:13:51;;;;;;;15.83;11.20;;;;;;;;;;5094908;28;20502;-82
2020/12/17 01:16:18;;;;;;;14.27;10.87;;;;;;;;;;5094620;28;20217;-81
2020/12/17 01:18:44;;;;;;;14.20;10.53;;;;;;;;;;5094716;28;20237;-82
2020/12/17 01:21:11;;;;;;;12.80;11.10;;;;;;;;;;5094797;28;20244;-81
2020/12/17 01:23:37;;;;;;;15.00;11.40;;;;;;;;;;5094377;28;20235;-82
2020/12/17 01:26:08;;;;;;;23.10;14.00;;;;;;;;;;5093149;28;20637;-81
2020/12/17 01:28:34;;;;;;;26.63;14.53;;;;;;;;;;5094825;28;20202;-82
2020/12/17 01:31:04;;;;;;;29.60;15.23;;;;;;;;;;5094778;28;20488;-82
2020/12/17 01:33:31;;;;;;;40.30;18.53;;;;;;;;;;5094252;28;20650;-82
2020/12/17 01:35:59;;;;;;;26.00;14.00;;;;;;;;;;5096895;28;20606;-81
2020/12/17 01:38:25;;;;;;;17.53;12.20;;;;;;;;;;5098331;28;20229;-82
2020/12/17 01:40:52;;;;;;;16.10;12.53;;;;;;;;;;5098176;28;20233;-82
2020/12/17 01:43:18;;;;;;;17.03;11.40;;;;;;;;;;5098426;28;20225;-81
2020/12/17 01:45:44;;;;;;;15.57;12.30;;;;;;;;;;5098091;28;20337;-82
2020/12/17 01:48:11;;;;;;;15.23;11.40;;;;;;;;;;5098301;28;20244;-82
2020/12/17 01:50:38;;;;;;;14.37;11.37;;;;;;;;;;5097682;28;20245;-82
2020/12/17 01:53:04;;;;;;;15.37;11.80;;;;;;;;;;5098090;28;20236;-81
2020/12/17 01:55:31;;;;;;;14.37;11.93;;;;;;;;;;5097736;28;20233;-82
2020/12/17 01:57:57;;;;;;;14.97;11.33;;;;;;;;;;5098003;28;20637;-82
2020/12/17 02:00:25;;;;;;;14.40;11.87;;;;;;;;;;5097708;28;20213;-82
2020/12/17 02:02:51;;;;;;;16.27;12.10;;;;;;;;;;5097844;28;20202;-82
2020/12/17 02:05:17;;;;;;;15.73;11.77;;;;;;;;;;5097783;28;20209;-82
2020/12/17 02:07:44;;;;;;;14.70;11.23;;;;;;;;;;5097445;28;20260;-80
2020/12/17 02:10:10;;;;;;;14.57;11.70;;;;;;;;;;5097219;28;20241;-81
2020/12/17 02:12:44;;;;;;;18.33;11.47;;;;;;;;;;5097751;28;20629;-81
2020/12/17 02:15:10;;;;;;;14.93;11.60;;;;;;;;;;5097597;28;20217;-82
2020/12/17 02:17:36;;;;;;;15.20;11.97;;;;;;;;;;5097613;28;20202;-82
2020/12/17 02:20:03;;;;;;;15.87;11.27;;;;;;;;;;5097079;28;20308;-81
2020/12/17 02:22:29;;;;;;;17.97;11.63;;;;;;;;;;5097697;28;20581;-82
2020/12/17 02:24:56;;;;;;;15.37;11.90;;;;;;;;;;5097023;28;20248;-82
2020/12/17 02:27:42;;;;;;;17.60;11.17;;;;;;;;;;5097275;28;20185;-81
2020/12/17 02:30:27;;;;;;;13.90;11.50;;;;;;;;;;5096693;28;20204;-82
2020/12/17 02:33:12;;;;;;;13.37;11.53;;;;;;;;;;5097067;28;20252;-81
2020/12/17 02:35:56;;;;;;;14.47;11.57;;;;;;;;;;5096993;28;20193;-81
2020/12/17 02:38:42;;;;;;;14.43;11.77;;;;;;;;;;5096757;28;20227;-81
2020/12/17 02:41:28;;;;;;;14.53;11.33;;;;;;;;;;5096809;28;20185;-81
2020/12/17 02:44:13;;;;;;;14.87;11.80;;;;;;;;;;5096770;28;20498;-82
2020/12/17 02:46:57;;;;;;;14.30;11.07;;;;;;;;;;5096830;28;20181;-81
2020/12/17 02:49:42;;;;;;;15.20;12.20;;;;;;;;;;5096519;28;20736;-82
2020/12/17 02:52:27;;;;;;;16.27;11.50;;;;;;;;;;5096701;28;20586;-82
2020/12/17 02:55:12;;;;;;;14.23;11.73;;;;;;;;;;5096566;28;20232;-82
2020/12/17 02:57:58;;;;;;;16.80;12.20;;;;;;;;;;5096593;28;20184;-83
2020/12/17 03:00:24;;;;;;;17.67;12.47;;;;;;;;;;5096376;28;20194;-82
2020/12/17 03:02:50;;;;;;;18.70;12.23;;;;;;;;;;5096473;28;20206;-82
2020/12/17 03:05:16;;;;;;;15.40;12.43;;;;;;;;;;5096550;28;20229;-82
2020/12/17 03:07:43;;;;;;;14.50;12.10;;;;;;;;;;5096681;28;20230;-83
2020/12/17 03:10:12;;;;;;;15.70;12.70;;;;;;;;;;5096345;28;20257;-82
2020/12/17 03:12:39;;;;;;;17.90;12.57;;;;;;;;;;5096478;28;20210;-81
2020/12/17 03:15:06;;;;;;;18.50;12.67;;;;;;;;;;5096486;28;20244;-82
2020/12/17 03:17:32;;;;;;;15.70;12.47;;;;;;;;;;5096196;28;20237;-82
2020/12/17 03:19:58;;;;;;;16.10;12.43;;;;;;;;;;5096143;28;20273;-81
2020/12/17 03:22:24;;;;;;;15.50;12.10;;;;;;;;;;5096401;28;20618;-82
2020/12/17 03:24:50;;;;;;;16.13;12.63;;;;;;;;;;5096268;28;20229;-82
2020/12/17 03:27:16;;;;;;;17.17;12.03;;;;;;;;;;5096295;28;20225;-81
2020/12/17 03:29:42;;;;;;;17.57;11.87;;;;;;;;;;5095814;28;20310;-81
2020/12/17 03:32:09;;;;;;;18.40;12.80;;;;;;;;;;5095913;28;20229;-81
2020/12/17 03:34:35;;;;;;;15.73;12.27;;;;;;;;;;5095768;28;20714;-82
2020/12/17 03:37:02;;;;;;;15.77;11.90;;;;;;;;;;5096112;28;20640;-83
2020/12/17 03:39:28;;;;;;;14.73;12.33;;;;;;;;;;5095717;28;20236;-81
2020/12/17 03:41:54;;;;;;;16.60;12.77;;;;;;;;;;5096198;28;20230;-83
2020/12/17 03:44:20;;;;;;;18.67;13.57;;;;;;;;;;5095780;28;20534;-81
2020/12/17 03:46:46;;;;;;;14.03;11.27;;;;;;;;;;5096106;28;20229;-82
2020/12/17 03:49:13;;;;;;;15.13;12.60;;;;;;;;;;5095090;28;20228;-82
2020/12/17 03:51:39;;;;;;;16.97;11.87;;;;;;;;;;5096049;28;20280;-82
2020/12/17 03:54:05;;;;;;;16.80;12.73;;;;;;;;;;5095211;28;20233;-81
2020/12/17 03:56:31;;;;;;;14.37;12.10;;;;;;;;;;5095806;28;20233;-82
2020/12/17 03:58:58;;;;;;;16.43;12.43;;;;;;;;;;5093942;28;20225;-81
2020/12/17 04:01:24;;;;;;;14.83;12.73;;;;;;;;;;5095217;28;20275;-82
2020/12/17 04:03:50;;;;;;;21.20;13.17;;;;;;;;;;5095656;28;20233;-82
2020/12/17 04:06:17;;;;;;;17.60;12.23;;;;;;;;;;5094423;28;20259;-81
2020/12/17 04:08:43;;;;;;;20.00;13.77;;;;;;;;;;5095535;28;20236;-82
2020/12/17 04:11:09;;;;;;;16.23;12.77;;;;;;;;;;5095492;28;20558;-81
2020/12/17 04:13:35;;;;;;;16.60;13.53;;;;;;;;;;5094941;28;20253;-82
2020/12/17 04:16:02;;;;;;;18.20;12.83;;;;;;;;;;5095297;28;20229;-81
2020/12/17 04:18:28;;;;;;;15.00;12.63;;;;;;;;;;5094937;28;20252;-81
2020/12/17 04:20:54;;;;;;;16.87;13.13;;;;;;;;;;5094873;28;20236;-83
2020/12/17 04:23:21;;;;;;;16.00;13.13;;;;;;;;;;5095149;28;20236;-86
2020/12/17 04:25:47;;;;;;;19.23;12.63;;;;;;;;;;5094905;28;20557;-81
2020/12/17 04:28:13;;;;;;;16.53;13.37;;;;;;;;;;5095113;28;20206;-82
2020/12/17 04:30:39;;;;;;;17.73;12.27;;;;;;;;;;5095303;28;20264;-80
2020/12/17 04:33:06;;;;;;;21.03;13.33;;;;;;;;;;5094690;28;20261;-82
2020/12/17 04:35:32;;;;;;;17.10;13.27;;;;;;;;;;5095070;28;20232;-83
2020/12/17 04:37:58;;;;;;;20.25;16.17;;;;;;;;;;5094422;28;20786;-83
2020/12/17 04:40:25;;;;;;;16.50;13.30;;;;;;;;;;5095017;28;20225;-83
2020/12/17 04:42:51;;;;;;;14.60;12.77;;;;;;;;;;5095006;28;20233;-81
2020/12/17 04:45:18;;;;;;;13.20;11.17;;;;;;;;;;5095002;28;20234;-89
2020/12/17 04:47:45;;;;;;;17.53;12.87;;;;;;;;;;5094854;28;20210;-83
2020/12/17 04:50:14;;;;;;;15.43;12.73;;;;;;;;;;5094539;28;20257;-83
2020/12/17 04:52:40;;;;;;;17.73;12.57;;;;;;;;;;5095026;28;20502;-84
2020/12/17 04:55:07;;;;;;;15.30;12.30;;;;;;;;;;5094807;28;20676;-83
2020/12/17 04:57:36;;;;;;;16.70;12.73;;;;;;;;;;5094963;28;20206;-83
2020/12/17 05:00:03;;;;;;;15.20;12.80;;;;;;;;;;5094703;28;20272;-83
2020/12/17 05:02:31;;;;;;;17.63;13.13;;;;;;;;;;5094833;28;20212;-82
2020/12/17 05:04:58;;;;;;;17.07;12.43;;;;;;;;;;5095013;28;20226;-83
2020/12/17 05:07:24;;;;;;;17.90;12.30;;;;;;;;;;5095140;28;20603;-83
2020/12/17 05:09:51;;;;;;;16.10;12.33;;;;;;;;;;5093631;28;20275;-83
2020/12/17 05:12:17;;;;;;;16.37;12.57;;;;;;;;;;5098875;28;20209;-85
2020/12/17 05:14:44;;;;;;;17.77;12.37;;;;;;;;;;5098947;28;20233;-81
2020/12/17 05:17:11;;;;;;;16.63;13.07;;;;;;;;;;5098969;28;20234;-82
2020/12/17 05:19:37;;;;;;;12.70;11.40;;;;;;;;;;5098637;28;20263;-80
2020/12/17 05:22:04;;;;;;;18.03;12.67;;;;;;;;;;5102041;28;20202;-83
2020/12/17 05:24:31;;;;;;;17.70;12.20;;;;;;;;;;5097984;28;20229;-81
2020/12/17 05:26:57;;;;;;;17.07;12.30;;;;;;;;;;5098567;28;20228;-82
2020/12/17 05:29:24;;;;;;;15.73;11.87;;;;;;;;;;5098157;28;20237;-81
2020/12/17 05:31:51;;;;;;;16.70;12.47;;;;;;;;;;5097104;28;20261;-82
2020/12/17 05:34:18;;;;;;;14.20;11.80;;;;;;;;;;5096943;28;20249;-83
2020/12/17 05:36:45;;;;;;;16.60;12.70;;;;;;;;;;5098415;28;20236;-82
2020/12/17 05:39:12;;;;;;;15.30;11.83;;;;;;;;;;5098062;28;20326;-81
2020/12/17 05:41:40;;;;;;;16.17;10.87;;;;;;;;;;5097960;28;20193;-85
2020/12/17 05:44:12;;;;;;;13.33;11.63;;;;;;;;;;5097966;28;20225;-83
2020/12/17 05:46:39;;;;;;;14.07;10.77;;;;;;;;;;5097946;28;20230;-85
2020/12/17 05:49:10;;;;;;;17.73;12.57;;;;;;;;;;5097606;28;20240;-82
2020/12/17 05:51:37;;;;;;;14.40;11.33;;;;;;;;;;5097844;28;20659;-84
2020/12/17 05:54:03;;;;;;;16.30;11.57;;;;;;;;;;5097004;28;20498;-85
2020/12/17 05:56:30;;;;;;;14.60;11.67;;;;;;;;;;5097388;28;20221;-84
2020/12/17 05:59:00;;;;;;;18.53;11.97;;;;;;;;;;5096789;28;20240;-85
2020/12/17 06:01:27;;;;;;;15.50;11.70;;;;;;;;;;5095412;28;20632;-83
2020/12/17 06:03:53;;;;;;;15.63;12.53;;;;;;;;;;5096841;28;20229;-84
2020/12/17 06:06:20;;;;;;;15.47;11.43;;;;;;;;;;5097194;28;20217;-84
2020/12/17 06:08:50;;;;;;;14.70;11.77;;;;;;;;;;5097035;28;20527;-86
2020/12/17 06:11:17;;;;;;;15.33;11.83;;;;;;;;;;5097706;28;20242;-85
2020/12/17 06:13:43;;;;;;;14.67;11.07;;;;;;;;;;5096962;28;20237;-84
2020/12/17 06:16:11;;;;;;;14.83;12.17;;;;;;;;;;5097650;28;20201;-82
2020/12/17 06:18:40;;;;;;;14.13;11.43;;;;;;;;;;5096887;28;20209;-83
2020/12/17 06:21:08;;;;;;;17.90;12.50;;;;;;;;;;5096659;28;20645;-82
2020/12/17 06:23:36;;;;;;;16.27;11.30;;;;;;;;;;5096802;28;20274;-83
2020/12/17 06:26:03;;;;;;;13.30;11.60;;;;;;;;;;5097267;28;20217;-82
2020/12/17 06:28:46;;;;;;;17.10;12.67;;;;;;;;;;5097110;28;20253;-90
2020/12/17 06:31:16;;;;;;;13.03;11.20;;;;;;;;;;5097128;28;20660;-83
2020/12/17 06:33:42;;;;;;;13.40;11.37;;;;;;;;;;5096586;28;20260;-83
2020/12/17 06:36:11;;;;;;;12.43;11.07;;;;;;;;;;5096898;28;20645;-81
2020/12/17 06:38:39;;;;;;;14.30;11.93;;;;;;;;;;5096570;28;20241;-81
2020/12/17 06:41:14;;;;;;;15.50;11.70;;;;;;;;;;5097119;28;20235;-82
2020/12/17 06:43:40;;;;;;;13.47;10.70;;;;;;;;;;5096353;28;20629;-82
2020/12/17 06:46:26;;;;;;;14.37;11.70;;;;;;;;;;5096793;28;20284;-81
2020/12/17 06:48:54;;;;;;;15.63;12.27;;;;;;;;;;5096163;28;20231;-82
2020/12/17 06:51:44;;;;;;;15.60;12.60;;;;;;;;;;5096512;28;20241;-82
2020/12/17 06:54:33;;;;;;;14.47;12.37;;;;;;;;;;5080815;28;20622;-82
2020/12/17 06:57:03;;;;;;;14.17;11.53;;;;;;;;;;5096724;28;20206;-82
2020/12/17 06:59:29;;;;;;;15.93;11.57;;;;;;;;;;5096612;28;20656;-82
2020/12/17 07:01:55;;;;;;;13.83;11.90;;;;;;;;;;5096518;28;20244;-82
2020/12/17 07:04:34;;;;;;;16.43;12.50;;;;;;;;;;5096403;28;20225;-82
2020/12/17 07:07:18;;;;;;;15.00;12.23;;;;;;;;;;5096434;28;20233;-82
2020/12/17 07:09:46;;;;;;;14.17;11.83;;;;;;;;;;5096218;28;20238;-82
2020/12/17 07:12:13;;;;;;;13.83;12.00;;;;;;;;;;5096335;28;20245;-82
2020/12/17 07:14:41;;;;;;;14.10;12.13;;;;;;;;;;5096002;28;20202;-82
2020/12/17 07:17:08;;;;;;;13.57;11.27;;;;;;;;;;5096377;28;20234;-83
2020/12/17 07:19:41;;;;;;;13.40;11.80;;;;;;;;;;5096170;28;20287;-82
2020/12/17 07:22:08;;;;;;;13.13;11.30;;;;;;;;;;5096096;28;20609;-83
2020/12/17 07:24:36;;;;;;;12.70;11.30;;;;;;;;;;5096121;28;20239;-82
2020/12/17 07:27:09;;;;;;;13.50;11.10;;;;;;;;;;5095885;28;20233;-82
2020/12/17 07:29:41;;;;;;;17.20;12.23;;;;;;;;;;5095735;28;20618;-83
2020/12/17 07:32:26;;;;;;;14.60;11.87;;;;;;;;;;5095319;28;20574;-82
2020/12/17 07:34:53;;;;;;;14.20;11.27;;;;;;;;;;5095860;28;20636;-82
2020/12/17 07:37:32;;;;;;;14.07;11.03;;;;;;;;;;5095794;28;20212;-82
2020/12/17 07:39:59;;;;;;;13.70;11.13;;;;;;;;;;5095706;28;20258;-83
2020/12/17 07:42:27;;;;;;;13.57;11.50;;;;;;;;;;5095595;28;20248;-82
2020/12/17 07:44:54;;;;;;;16.00;12.23;;;;;;;;;;5095639;28;20240;-83
2020/12/17 07:47:21;;;;;;;13.63;10.80;;;;;;;;;;5095463;28;20228;-83
2020/12/17 07:49:47;;;;;;;15.00;11.27;;;;;;;;;;5095694;28;20241;-83
2020/12/17 07:52:27;;;;;;;12.57;10.60;;;;;;;;;;5095567;28;20727;-83
2020/12/17 07:54:54;;;;;;;20.90;11.20;;;;;;;;;;5095610;28;20518;-82
2020/12/17 07:57:20;;;;;;;51.33;14.87;;;;;;;;;;5095326;28;20229;-83
2020/12/17 07:59:46;;;;;;;27.40;12.80;;;;;;;;;;5095480;28;20626;-83
2020/12/17 08:02:13;;;;;;;33.90;12.77;;;;;;;;;;5094897;28;20225;-82
2020/12/17 08:04:44;;;;;;;22.33;11.47;;;;;;;;;;5094879;28;20238;-83
2020/12/17 08:07:10;;;;;;;15.70;10.97;;;;;;;;;;5095380;28;20234;-82
2020/12/17 08:09:36;;;;;;;19.63;11.50;;;;;;;;;;5094187;28;20487;-82
2020/12/17 08:12:03;;;;;;;44.07;14.47;;;;;;;;;;5095321;28;20249;-82
2020/12/17 08:14:29;;;;;;;28.40;11.83;;;;;;;;;;5095370;28;20236;-82
2020/12/17 08:17:03;;;;;;;27.73;12.40;;;;;;;;;;5095274;28;20214;-82
2020/12/17 08:19:30;;;;;;;19.97;10.83;;;;;;;;;;5095065;28;20237;-82
2020/12/17 08:21:57;;;;;;;76.03;16.50;;;;;;;;;;5095251;28;20236;-82
2020/12/17 08:24:24;;;;;;;37.37;12.63;;;;;;;;;;5095144;28;20197;-82
2020/12/17 08:26:52;;;;;;;142.77;21.27;;;;;;;;;;5093122;28;20198;-82
2020/12/17 08:29:18;;;;;;;107.97;21.60;;;;;;;;;;5095032;28;20244;-83
2020/12/17 08:31:45;;;;;;;22.30;11.97;;;;;;;;;;5095196;28;20241;-82
2020/12/17 08:34:11;;;;;;;12.53;11.07;;;;;;;;;;5094428;28;20221;-82
2020/12/17 08:36:39;;;;;;;17.07;10.93;;;;;;;;;;5095295;28;20244;-92
2020/12/17 08:39:07;;;;;;;15.07;10.97;;;;;;;;;;5095312;28;20205;-87
2020/12/17 08:41:35;;;;;;;16.03;10.60;;;;;;;;;;5095164;28;20233;-88
2020/12/17 08:44:02;;;;;;;17.13;11.00;;;;;;;;;;5095981;28;20497;-90
2020/12/17 08:46:31;;;;;;;12.67;9.90;;;;;;;;;;5099298;28;20174;-83
2020/12/17 08:48:58;;;;;;;9.97;8.97;;;;;;;;;;5099020;28;20244;-84
2020/12/17 08:51:24;;;;;;;15.47;10.50;;;;;;;;;;5098727;28;20245;-84
2020/12/17 08:53:51;;;;;;;14.37;11.43;;;;;;;;;;5099086;28;20274;-87
2020/12/17 08:56:18;;;;;;;22.87;11.73;;;;;;;;;;5098959;28;20233;-85
2020/12/17 08:58:48;;;;;;;18.70;11.90;;;;;;;;;;5098569;28;20229;-83
2020/12/17 09:01:15;;;;;;;14.27;10.73;;;;;;;;;;5098930;28;20240;-86
2020/12/17 09:03:44;;;;;;;10.60;9.50;;;;;;;;;;5098591;28;20543;-87
2020/12/17 09:06:11;;;;;;;11.47;9.60;;;;;;;;;;5098437;28;20233;-85
2020/12/17 09:08:37;;;;;;;11.07;9.43;;;;;;;;;;5098607;28;20244;-85
2020/12/17 09:11:04;;;;;;;11.80;10.03;;;;;;;;;;5098845;28;20656;-87
2020/12/17 09:13:30;;;;;;;12.40;10.07;;;;;;;;;;5098349;28;20632;-86
2020/12/17 09:16:00;;;;;;;10.63;9.47;;;;;;;;;;5098513;28;20237;-84
2020/12/17 09:18:27;;;;;;;12.23;9.50;;;;;;;;;;5098363;28;20240;-85
2020/12/17 09:21:06;;;;;;;10.57;9.47;;;;;;;;;;5098294;28;20236;-84
2020/12/17 09:23:32;;;;;;;11.53;9.07;;;;;;;;;;5097936;28;20232;-82
2020/12/17 09:26:10;;;;;;;12.83;9.10;;;;;;;;;;5098151;28;20262;-82
2020/12/17 09:28:36;;;;;;;10.83;9.27;;;;;;;;;;5097986;28;20240;-83
2020/12/17 09:31:02;;;;;;;10.77;9.67;;;;;;;;;;5098379;28;20249;-84
2020/12/17 09:33:29;;;;;;;9.73;8.73;;;;;;;;;;5096140;28;20276;-82
2020/12/17 09:35:55;;;;;;;13.73;9.17;;;;;;;;;;5097901;28;20264;-83
2020/12/17 09:38:22;;;;;;;11.30;8.90;;;;;;;;;;5097450;28;20645;-84
2020/12/17 09:40:52;;;;;;;9.67;8.67;;;;;;;;;;5098018;28;20226;-84
2020/12/17 09:43:19;;;;;;;13.93;9.70;;;;;;;;;;5097446;28;20226;-83
2020/12/17 09:45:46;;;;;;;9.83;8.53;;;;;;;;;;5097856;28;20230;-84
2020/12/17 09:48:15;;;;;;;11.27;8.23;;;;;;;;;;5097331;28;20229;-85
2020/12/17 09:50:50;;;;;;;21.27;10.60;;;;;;;;;;5097585;28;20225;-80
2020/12/17 09:53:16;;;;;;;12.07;9.23;;;;;;;;;;5097647;28;20233;-81
2020/12/17 09:55:42;;;;;;;10.33;8.97;;;;;;;;;;5096969;28;20267;-82
2020/12/17 09:58:08;;;;;;;20.03;9.33;;;;;;;;;;5097228;28;20234;-82
2020/12/17 10:00:36;;;;;;;11.50;9.50;;;;;;;;;;5097450;28;20217;-84
2020/12/17 10:03:02;;;;;;;12.47;9.17;;;;;;;;;;5097111;28;20240;-83
2020/12/17 10:05:28;;;;;;;12.83;9.63;;;;;;;;;;5097631;28;20254;-83
2020/12/17 10:07:54;;;;;;;9.67;8.67;;;;;;;;;;5096449;28;20240;-83
2020/12/17 10:10:20;;;;;;;11.53;8.53;;;;;;;;;;5097344;28;20210;-83
2020/12/17 10:12:46;;;;;;;16.07;9.27;;;;;;;;;;5097159;28;20634;-83
2020/12/17 10:15:12;;;;;;;11.33;9.07;;;;;;;;;;5097611;28;20229;-83
2020/12/17 10:17:39;;;;;;;10.10;9.07;;;;;;;;;;5096908;28;20241;-84
2020/12/17 10:20:06;;;;;;;12.53;9.00;;;;;;;;;;5097496;28;20229;-82
2020/12/17 10:22:32;;;;;;;25.00;10.73;;;;;;;;;;5096926;28;20761;-84
2020/12/17 10:24:58;;;;;;;19.47;9.90;;;;;;;;;;5097402;28;20233;-81
2020/12/17 10:27:24;;;;;;;30.50;10.70;;;;;;;;;;5096911;28;20987;-83
2020/12/17 10:29:50;;;;;;;18.57;9.93;;;;;;;;;;5097317;28;20225;-83
2020/12/17 10:32:18;;;;;;;10.67;9.10;;;;;;;;;;5096416;28;20257;-82
2020/12/17 10:34:45;;;;;;;106.10;14.90;;;;;;;;;;5096869;28;20229;-82
2020/12/17 10:37:11;;;;;;;15.93;9.77;;;;;;;;;;5097176;28;20230;-82
2020/12/17 10:39:37;;;;;;;11.43;9.43;;;;;;;;;;5096550;28;20233;-82
2020/12/17 10:42:03;;;;;;;19.30;9.63;;;;;;;;;;5096462;28;20699;-81
2020/12/17 10:44:29;;;;;;;28.43;10.00;;;;;;;;;;5096591;28;20230;-82
2020/12/17 10:46:57;;;;;;;14.13;8.77;;;;;;;;;;5096883;28;20226;-83
2020/12/17 10:49:23;;;;;;;31.50;10.37;;;;;;;;;;5096485;28;20225;-83
2020/12/17 10:51:50;;;;;;;17.43;9.80;;;;;;;;;;5096559;28;20241;-81
2020/12/17 10:54:16;;;;;;;14.43;9.90;;;;;;;;;;5096611;28;20491;-82
2020/12/17 10:56:44;;;;;;;15.63;8.63;;;;;;;;;;5096246;28;20248;-82
2020/12/17 10:59:10;;;;;;;89.73;15.50;;;;;;;;;;5096242;28;20202;-85
2020/12/17 11:01:37;;;;;;;27.93;10.80;;;;;;;;;;5096741;28;20244;-86
2020/12/17 11:04:03;;;;;;;46.50;12.23;;;;;;;;;;5096799;28;20222;-83
2020/12/17 11:06:29;;;;;;;26.80;10.73;;;;;;;;;;5096652;28;20206;-84
2020/12/17 11:08:56;;;;;;;11.43;9.10;;;;;;;;;;5095962;28;20241;-82
2020/12/17 11:11:22;;;;;;;12.20;9.13;;;;;;;;;;5095908;28;20260;-81
2020/12/17 11:13:49;;;;;;;67.70;13.53;;;;;;;;;;5095905;28;20226;-78
2020/12/17 11:16:17;;;;;;;71.37;14.73;;;;;;;;;;5096520;28;20225;-79
2020/12/17 11:18:43;;;;;;;87.33;15.53;;;;;;;;;;5096175;28;20237;-80
2020/12/17 11:21:09;;;;;;;63.30;14.83;;;;;;;;;;5096409;28;20600;-78
2020/12/17 11:23:36;;;;;;;16.10;10.40;;;;;;;;;;5095562;28;20229;-79
2020/12/17 11:26:03;;;;;;;10.10;9.10;;;;;;;;;;5095755;28;20594;-82
2020/12/17 11:28:29;;;;;;;10.40;9.30;;;;;;;;;;5095203;28;20907;-82
2020/12/17 11:30:56;;;;;;;10.70;9.27;;;;;;;;;;5095264;28;20241;-81
2020/12/17 11:33:22;;;;;;;12.10;10.07;;;;;;;;;;5094150;28;20245;-82
2020/12/17 11:35:49;;;;;;;12.60;9.80;;;;;;;;;;5094353;28;20222;-83
2020/12/17 11:38:15;;;;;;;11.90;9.47;;;;;;;;;;5096900;28;20215;-82
2020/12/17 11:40:41;;;;;;;11.40;9.00;;;;;;;;;;5094871;28;20237;-81
2020/12/17 11:43:09;;;;;;;11.43;9.03;;;;;;;;;;5094790;28;20224;-80
2020/12/17 11:45:35;;;;;;;11.03;9.00;;;;;;;;;;5094967;28;20226;-79
2020/12/17 11:48:01;;;;;;;9.77;8.77;;;;;;;;;;5094819;28;20233;-83
2020/12/17 11:50:27;;;;;;;11.00;9.40;;;;;;;;;;5094918;28;20238;-81
2020/12/17 11:52:53;;;;;;;13.57;9.30;;;;;;;;;;5095218;28;20246;-82
2020/12/17 11:55:20;;;;;;;10.73;9.63;;;;;;;;;;5095211;28;20240;-83
2020/12/17 11:57:47;;;;;;;12.07;9.43;;;;;;;;;;5095428;28;20244;-82
2020/12/17 12:00:14;;;;;;;10.73;8.47;;;;;;;;;;5095425;28;20632;-80
2020/12/17 12:02:41;;;;;;;36.27;10.30;;;;;;;;;;5095157;28;20222;-81
2020/12/17 12:05:08;;;;;;;71.73;14.93;;;;;;;;;;5095648;28;20240;-81
2020/12/17 12:07:34;;;;;;;18.37;10.33;;;;;;;;;;5095161;28;20229;-81
2020/12/17 12:10:00;;;;;;;11.83;9.30;;;;;;;;;;5095739;28;20271;-82
2020/12/17 12:12:26;;;;;;;10.67;9.50;;;;;;;;;;5094210;28;20302;-81
2020/12/17 12:14:52;;;;;;;8.93;8.00;;;;;;;;;;5094103;28;20249;-81
2020/12/17 12:17:19;;;;;;;12.77;8.27;;;;;;;;;;5094645;28;20242;-81
2020/12/17 12:19:46;;;;;;;9.33;7.90;;;;;;;;;;5094473;28;20547;-84
2020/12/17 12:22:12;;;;;;;10.30;7.90;;;;;;;;;;5094160;28;20240;-80
2020/12/17 12:24:38;;;;;;;10.67;8.20;;;;;;;;;;5094448;28;20232;-82
2020/12/17 12:27:04;;;;;;;10.97;8.03;;;;;;;;;;5094355;28;20236;-83
2020/12/17 12:29:30;;;;;;;18.97;7.73;;;;;;;;;;5094478;28;20229;-84
2020/12/17 12:31:56;;;;;;;77.67;13.50;;;;;;;;;;5094198;28;20550;-83
2020/12/17 12:34:25;;;;;;;150.90;17.57;;;;;;;;;;5092818;28;20235;-84
2020/12/17 12:36:52;;;;;;;263.40;24.37;;;;;;;;;;5094631;28;20233;-84
2020/12/17 12:39:18;;;;;;;125.50;14.93;;;;;;;;;;5093911;28;20245;-83
2020/12/17 12:41:45;;;;;;;2.87;2.60;;;;;;;;;;5094137;28;20240;-82
2020/12/17 12:44:11;;;;;;;2.80;2.23;;;;;;;;;;5094153;28;20225;-83
2020/12/17 12:46:37;;;;;;;1.80;1.70;;;;;;;;;;5094028;28;20233;-82
2020/12/17 12:49:03;;;;;;;1.73;1.63;;;;;;;;;;5094462;28;20304;-83
2020/12/17 12:51:30;;;;;;;3.87;1.90;;;;;;;;;;5094165;28;20671;-83
2020/12/17 12:53:56;;;;;;;2.73;1.83;;;;;;;;;;5094420;28;20252;-84
2020/12/17 12:56:22;;;;;;;1.80;1.70;;;;;;;;;;5093985;28;20590;-80
2020/12/17 12:58:49;;;;;;;3.13;2.03;;;;;;;;;;5093500;28;20240;-82
2020/12/17 13:01:15;;;;;;;2.20;2.10;;;;;;;;;;5093224;28;20740;-82
2020/12/17 13:03:41;;;;;;;4.77;2.00;;;;;;;;;;5092972;28;20225;-83
2020/12/17 13:06:12;;;;;;;1.90;1.80;;;;;;;;;;5094108;28;20260;-82
2020/12/17 13:08:39;;;;;;;2.00;1.80;;;;;;;;;;5093768;28;20534;-82
2020/12/17 13:11:05;;;;;;;1.97;1.63;;;;;;;;;;5094244;28;20641;-84
2020/12/17 13:13:31;;;;;;;3.00;1.80;;;;;;;;;;5093439;28;20249;-84
2020/12/17 13:15:57;;;;;;;1.70;1.60;;;;;;;;;;5093965;28;20214;-83
2020/12/17 13:18:24;;;;;;;1.77;1.67;;;;;;;;;;5092974;28;20203;-81
2020/12/17 13:20:50;;;;;;;1.63;1.53;;;;;;;;;;5095134;28;20205;-81
2020/12/17 13:23:16;;;;;;;1.80;1.50;;;;;;;;;;5094597;28;20221;-81
2020/12/17 13:25:43;;;;;;;1.83;1.73;;;;;;;;;;5094826;28;20233;-82
2020/12/17 13:28:11;;;;;;;1.73;1.67;;;;;;;;;;5094650;28;20536;-81
2020/12/17 13:30:37;;;;;;;1.60;1.50;;;;;;;;;;5093328;28;20210;-82
2020/12/17 13:33:04;;;;;;;1.67;1.27;;;;;;;;;;5097834;28;20249;-81
2020/12/17 13:35:30;;;;;;;2.40;1.43;;;;;;;;;;5097934;28;20240;-81
2020/12/17 13:37:56;;;;;;;1.33;1.23;;;;;;;;;;5098018;28;20235;-81
2020/12/17 13:40:22;;;;;;;1.93;1.50;;;;;;;;;;5098153;28;20213;-81
2020/12/17 13:42:49;;;;;;;1.13;1.13;;;;;;;;;;5097734;28;20236;-81
2020/12/17 13:45:15;;;;;;;1.17;1.17;;;;;;;;;;5098182;28;20267;-82
2020/12/17 13:47:41;;;;;;;1.00;1.00;;;;;;;;;;5098151;28;20618;-81
2020/12/17 13:50:07;;;;;;;1.80;1.10;;;;;;;;;;5097791;28;20233;-81
2020/12/17 13:52:33;;;;;;;2.87;1.17;;;;;;;;;;5098016;28;20308;-81
2020/12/17 13:54:59;;;;;;;1.53;1.10;;;;;;;;;;5098032;28;20248;-80
2020/12/17 13:57:25;;;;;;;1.20;1.20;;;;;;;;;;5097523;28;20197;-80
2020/12/17 13:59:52;;;;;;;1.63;1.53;;;;;;;;;;5097981;28;20229;-84
2020/12/17 14:02:18;;;;;;;1.73;1.35;;;;;;;;;;5096816;28;20786;-85
2020/12/17 14:04:44;;;;;;;2.80;1.50;;;;;;;;;;5097754;28;20222;-84
2020/12/17 14:07:10;;;;;;;1.40;1.40;;;;;;;;;;5097593;28;20232;-81
2020/12/17 14:09:37;;;;;;;1.40;1.40;;;;;;;;;;5097862;28;20230;-81
2020/12/17 14:12:04;;;;;;;2.93;1.40;;;;;;;;;;5096857;28;20250;-82
2020/12/17 14:14:30;;;;;;;1.50;1.40;;;;;;;;;;5097535;28;20624;-80
2020/12/17 14:16:57;;;;;;;1.37;1.37;;;;;;;;;;5097280;28;20210;-81
2020/12/17 14:19:23;;;;;;;1.57;1.47;;;;;;;;;;5096995;28;20230;-82
2020/12/17 14:21:52;;;;;;;1.73;1.20;;;;;;;;;;5096412;28;20343;-82
2020/12/17 14:24:18;;;;;;;1.70;1.40;;;;;;;;;;5096697;28;20206;-81
2020/12/17 14:26:44;;;;;;;4.63;1.57;;;;;;;;;;5095291;28;20228;-82